createdAt,value
2022-10-02T07:10:10.511Z,100313.13
2022-10-02T07:13:29.676Z,100315.38
2022-10-02T07:16:30.473Z,100319.16
2022-10-02T07:19:49.489Z,100322.66
2022-10-02T07:22:45.455Z,100317.75
2022-10-02T07:26:06.220Z,100340.88
2022-10-02T07:28:49.651Z,100321.94
2022-10-02T07:31:35.544Z,100313.19
2022-10-02T07:34:31.992Z,100315.03
2022-10-02T07:37:23.942Z,100317.66
2022-10-02T07:40:23.607Z,100318.19
2022-10-02T07:43:23.463Z,100324.53
2022-10-02T07:46:14.292Z,100329.00
2022-10-02T07:49:16.180Z,100336.84
2022-10-02T07:52:01.480Z,100345.25
2022-10-02T07:55:10.570Z,100341.72
2022-10-02T07:57:58.350Z,100337.34
2022-10-02T08:00:44.846Z,100347.44
2022-10-02T08:03:27.826Z,100352.09
2022-10-02T08:06:05.960Z,100358.97
2022-10-02T08:08:49.896Z,100345.88
2022-10-02T08:11:34.629Z,100348.94
2022-10-02T08:14:18.600Z,100351.75
2022-10-02T08:17:02.402Z,100343.88
2022-10-02T08:19:43.897Z,100351.81
2022-10-02T08:22:29.404Z,100349.69
2022-10-02T08:25:16.462Z,100349.38
2022-10-02T08:28:20.859Z,100348.69
2022-10-02T08:30:57.841Z,100343.00
2022-10-02T08:33:37.590Z,100353.06
2022-10-02T08:36:59.838Z,100356.56
2022-10-02T08:40:05.768Z,100361.75
2022-10-02T08:43:39.508Z,100352.94
2022-10-02T08:47:25.378Z,100370.78
2022-10-02T08:51:09.562Z,100387.72
2022-10-02T08:54:39.279Z,100384.94
2022-10-02T08:57:42.881Z,100361.34
2022-10-02T09:00:27.648Z,100363.00
2022-10-02T09:03:59.659Z,100354.25
2022-10-02T09:07:47.673Z,100356.28
2022-10-02T09:11:13.874Z,100353.78
2022-10-02T09:14:18.140Z,100347.88
2022-10-02T09:17:19.589Z,100341.50
2022-10-02T09:20:30.308Z,100339.22
2022-10-02T09:24:11.254Z,100346.22
2022-10-02T09:27:16.101Z,100344.25
2022-10-02T09:30:40.078Z,100341.94
2022-10-02T09:33:49.877Z,100354.44
2022-10-02T09:37:25.329Z,100340.19
2022-10-02T09:40:53.587Z,100344.28
2022-10-02T09:44:11.090Z,100344.00
2022-10-02T09:47:35.989Z,100349.81
2022-10-02T09:51:02.794Z,100351.63
2022-10-02T09:54:13.947Z,100356.97
2022-10-02T09:57:41.688Z,100368.38
2022-10-02T10:00:38.239Z,100371.09
2022-10-02T10:03:48.197Z,100360.88
2022-10-02T10:07:09.834Z,100358.75
2022-10-02T10:10:32.657Z,100366.81
2022-10-02T10:13:50.974Z,100365.84
2022-10-02T10:17:26.843Z,100371.34
2022-10-02T10:20:37.077Z,100369.44
2022-10-02T10:24:06.662Z,100367.44
2022-10-02T10:27:30.416Z,100371.72
2022-10-02T10:30:27.088Z,100366.13
2022-10-02T10:33:33.566Z,100369.19
2022-10-02T10:36:47.025Z,100371.94
2022-10-02T10:40:03.335Z,100362.31
2022-10-02T10:43:37.915Z,100365.75
2022-10-02T10:46:49.227Z,100370.88
2022-10-02T10:50:02.658Z,100361.88
2022-10-02T10:53:12.404Z,100364.22
2022-10-02T10:56:37.715Z,100384.53
2022-10-02T11:00:21.525Z,100384.31
2022-10-02T11:03:46.180Z,100395.75
2022-10-02T11:07:08.193Z,100388.97
2022-10-02T11:10:21.635Z,100389.72
2022-10-02T11:13:25.725Z,100403.91
2022-10-02T11:16:19.763Z,100417.16
2022-10-02T11:19:31.126Z,100391.91
2022-10-02T11:22:56.195Z,100393.06
2022-10-02T11:26:09.700Z,100400.41
2022-10-02T11:29:34.415Z,100399.81
2022-10-02T11:32:46.154Z,100394.75
2022-10-02T11:35:35.765Z,100403.16
2022-10-02T11:39:08.855Z,100408.63
2022-10-02T11:42:15.216Z,100413.66
2022-10-02T11:45:20.913Z,100415.22
2022-10-02T11:48:33.947Z,100419.69
2022-10-02T11:51:47.990Z,100415.31
2022-10-02T11:54:54.993Z,100418.25
2022-10-02T11:57:46.053Z,100421.22
2022-10-02T12:01:06.234Z,100424.59
2022-10-02T12:04:22.638Z,100427.25
2022-10-02T12:07:31.568Z,100427.94
2022-10-02T12:10:36.779Z,100425.56
2022-10-02T12:13:50.616Z,100427.97
2022-10-02T12:16:52.122Z,100433.75
2022-10-02T12:20:04.669Z,100422.44
2022-10-02T12:23:10.846Z,100404.59
2022-10-02T12:26:09.316Z,100407.09
2022-10-02T12:28:56.900Z,100411.00
2022-10-02T12:31:51.574Z,100411.06
2022-10-02T12:34:43.578Z,100402.69
2022-10-02T12:37:27.679Z,100417.50
2022-10-02T12:40:23.933Z,100403.63
2022-10-02T12:43:43.637Z,100403.78
2022-10-02T12:47:03.538Z,100407.88
2022-10-02T12:49:52.082Z,100395.00
2022-10-02T12:53:21.841Z,100387.81
2022-10-02T12:56:50.997Z,100387.72
2022-10-02T12:59:41.882Z,100393.09
2022-10-02T13:03:23.506Z,100382.50
2022-10-02T13:07:14.143Z,100396.56
2022-10-02T13:10:01.741Z,100384.72
2022-10-02T13:13:00.408Z,100394.63
2022-10-02T13:15:49.854Z,100398.28
2022-10-02T13:18:56.477Z,100387.66
2022-10-02T13:21:50.017Z,100394.91
2022-10-02T13:24:50.615Z,100393.25
2022-10-02T13:27:41.483Z,100398.91
2022-10-02T13:30:21.393Z,100395.78
2022-10-02T13:33:26.895Z,100395.38
2022-10-02T13:36:17.485Z,100419.41
2022-10-02T13:39:22.403Z,100417.59
2022-10-02T13:42:20.448Z,100417.84
2022-10-02T13:45:11.955Z,100430.25
2022-10-02T13:48:07.443Z,100441.47
2022-10-02T13:50:56.543Z,100448.84
2022-10-02T13:54:07.962Z,100447.50
2022-10-02T13:57:00.810Z,100454.25
2022-10-02T14:00:07.027Z,100450.34
2022-10-02T14:03:06.381Z,100438.56
2022-10-02T14:05:57.061Z,100437.00
2022-10-02T14:09:19.371Z,100444.69
2022-10-02T14:12:20.855Z,100431.16
2022-10-02T14:15:23.488Z,100433.13
2022-10-02T14:18:46.011Z,100429.72
2022-10-02T14:21:33.170Z,100432.50
2022-10-02T14:24:51.751Z,100420.34
2022-10-02T14:28:20.428Z,100409.38
2022-10-02T14:31:26.550Z,100406.00
2022-10-02T14:34:32.340Z,100399.81
2022-10-02T14:37:55.663Z,100405.44
2022-10-02T14:40:43.101Z,100396.66
2022-10-02T14:44:09.213Z,100400.38
2022-10-02T14:47:16.206Z,100400.00
2022-10-02T14:50:23.811Z,100406.78
2022-10-02T14:53:34.321Z,100396.69
2022-10-02T14:56:47.100Z,100396.44
2022-10-02T14:59:46.600Z,100399.81
2022-10-02T15:03:02.382Z,100401.25
2022-10-02T15:06:22.175Z,100398.44
2022-10-02T15:09:06.190Z,100395.16
2022-10-02T15:12:14.370Z,100382.41
2022-10-02T15:15:12.131Z,100400.91
2022-10-02T15:18:00.606Z,100396.97
2022-10-02T15:20:54.087Z,100387.72
2022-10-02T15:23:50.195Z,100395.00
2022-10-02T15:26:49.117Z,100406.78
2022-10-02T15:29:39.790Z,100399.47
2022-10-02T15:32:48.629Z,100408.38
2022-10-02T15:35:38.137Z,100399.66
2022-10-02T15:39:11.961Z,100395.25
2022-10-02T15:42:03.604Z,100396.09
2022-10-02T15:45:17.315Z,100392.03
2022-10-02T15:48:22.419Z,100392.84
2022-10-02T15:51:14.077Z,100382.72
2022-10-02T15:54:09.640Z,100388.88
2022-10-02T15:57:31.309Z,100390.84
2022-10-02T16:00:18.329Z,100385.19
2022-10-02T16:03:18.293Z,100385.13
2022-10-02T16:06:04.053Z,100394.66
2022-10-02T16:09:14.956Z,100389.88
2022-10-02T16:12:30.556Z,100394.34
2022-10-02T16:15:23.217Z,100396.69
2022-10-02T16:18:29.206Z,100396.38
2022-10-02T16:21:53.928Z,100392.31
2022-10-02T16:24:51.198Z,100397.63
2022-10-02T16:27:49.375Z,100394.28
2022-10-02T16:30:28.017Z,100399.59
2022-10-02T16:33:26.247Z,100394.53
2022-10-02T16:36:34.692Z,100397.47
2022-10-02T16:39:40.809Z,100400.38
2022-10-02T16:42:35.397Z,100404.25
2022-10-02T16:45:51.326Z,100405.94
2022-10-02T16:48:40.707Z,100411.41
2022-10-02T16:51:34.531Z,100406.47
2022-10-02T16:54:25.820Z,100409.00
2022-10-02T16:57:17.957Z,100407.44
2022-10-02T17:00:03.299Z,100421.69
2022-10-02T17:02:49.524Z,100415.16
2022-10-02T17:05:36.732Z,100410.66
2022-10-02T17:08:26.607Z,100411.41
2022-10-02T17:11:20.627Z,100404.84
2022-10-02T17:14:19.695Z,100400.94
2022-10-02T17:17:04.475Z,100403.50
2022-10-02T17:19:49.561Z,100396.47
2022-10-02T17:22:36.466Z,100400.84
2022-10-02T17:25:27.379Z,100412.19
2022-10-02T17:28:11.844Z,100410.94
2022-10-02T17:31:42.311Z,100397.38
2022-10-02T17:34:26.314Z,100399.19
2022-10-02T17:38:02.777Z,100407.03
2022-10-02T17:40:46.227Z,100408.03
2022-10-02T17:43:33.684Z,100410.53
